createdAt,value
2018-07-06T00:00:58.531Z,97793.63
2018-07-06T00:03:44.948Z,97804.20
2018-07-06T00:06:31.331Z,97808.02
2018-07-06T00:09:17.529Z,97814.05
2018-07-06T00:12:03.770Z,97814.19
2018-07-06T00:14:50.102Z,97806.96
2018-07-06T00:17:36.353Z,97814.41
2018-07-06T00:20:22.591Z,97807.23
2018-07-06T00:23:08.977Z,97814.22
2018-07-06T00:25:55.325Z,97814.77
2018-07-06T00:28:41.540Z,97811.58
2018-07-06T00:31:27.814Z,97815.57
2018-07-06T00:34:14.207Z,97814.81
2018-07-06T00:37:00.642Z,97811.84
2018-07-06T00:39:47.044Z,97818.80
2018-07-06T00:42:33.435Z,97814.27
2018-07-06T00:45:19.776Z,97813.47
2018-07-06T00:48:06.093Z,97825.02
2018-07-06T00:50:52.528Z,97822.34
2018-07-06T00:53:39.037Z,97824.21
2018-07-06T00:56:25.324Z,97829.05
2018-07-06T00:59:11.679Z,97831.25
2018-07-06T01:01:58.030Z,97826.80
2018-07-06T01:04:44.370Z,97828.69
2018-07-06T01:07:30.710Z,97828.16
2018-07-06T01:10:17.214Z,97829.30
2018-07-06T01:13:03.887Z,97830.69
2018-07-06T01:15:50.054Z,97829.61
2018-07-06T01:18:36.394Z,97832.57
2018-07-06T01:21:22.628Z,97829.39
2018-07-06T01:24:08.983Z,97821.86
2018-07-06T01:26:55.463Z,97831.49
2018-07-06T01:29:41.790Z,97825.96
2018-07-06T01:32:28.092Z,97826.13
2018-07-06T01:35:14.365Z,97823.24
2018-07-06T01:38:00.821Z,97824.35
2018-07-06T01:40:47.096Z,97823.27
2018-07-06T01:43:33.504Z,97828.34
2018-07-06T01:46:19.906Z,97821.31
2018-07-06T01:49:06.271Z,97819.66
2018-07-06T01:51:52.804Z,97823.44
2018-07-06T01:54:39.146Z,97818.09
2018-07-06T01:57:19.469Z,97819.41
2018-07-06T02:00:05.759Z,97823.20
2018-07-06T02:02:52.017Z,97816.10
2018-07-06T02:05:38.360Z,97814.80
2018-07-06T02:08:24.553Z,97817.71
2018-07-06T02:11:10.996Z,97809.95
2018-07-06T02:13:57.390Z,97812.91
2018-07-06T02:16:43.779Z,97807.81
2018-07-06T02:19:29.988Z,97812.95
2018-07-06T02:22:16.340Z,97814.53
2018-07-06T02:25:02.580Z,97808.34
2018-07-06T02:27:48.936Z,97806.15
2018-07-06T02:30:35.200Z,97807.80
2018-07-06T02:33:21.423Z,97805.66
2018-07-06T02:36:07.672Z,97812.07
2018-07-06T02:38:54.120Z,97807.49
2018-07-06T02:41:40.765Z,97809.60
2018-07-06T02:44:27.001Z,97810.64
2018-07-06T02:47:13.386Z,97814.70
2018-07-06T02:49:59.634Z,97810.67
2018-07-06T02:52:46.069Z,97810.06
2018-07-06T02:55:32.683Z,97810.86
2018-07-06T02:58:19.042Z,97809.83
2018-07-06T03:01:05.282Z,97811.67
2018-07-06T03:03:51.661Z,97816.78
2018-07-06T03:06:37.998Z,97810.91
2018-07-06T03:09:24.341Z,97811.94
2018-07-06T03:12:10.649Z,97812.20
2018-07-06T03:14:57.483Z,97817.01
2018-07-06T03:17:43.660Z,97811.67
2018-07-06T03:20:29.789Z,97810.06
2018-07-06T03:23:16.094Z,97807.64
2018-07-06T03:26:02.587Z,97811.63
2018-07-06T03:28:49.071Z,97815.34
2018-07-06T03:31:35.264Z,97816.95
2018-07-06T03:34:21.530Z,97819.91
2018-07-06T03:37:07.788Z,97820.45
2018-07-06T03:39:54.239Z,97818.84
2018-07-06T03:42:40.542Z,97822.07
2018-07-06T03:45:27.071Z,97820.45
2018-07-06T03:48:13.528Z,97816.15
2018-07-06T03:50:59.907Z,97823.86
2018-07-06T03:53:46.718Z,97825.25
2018-07-06T03:56:27.303Z,97828.20
2018-07-06T03:59:13.696Z,97828.70
2018-07-06T04:02:00.088Z,97831.66
2018-07-06T04:04:46.374Z,97830.36
2018-07-06T04:07:32.627Z,97831.97
2018-07-06T04:10:13.029Z,97838.97
2018-07-06T04:12:59.390Z,97848.19
2018-07-06T04:15:45.738Z,97843.58
2018-07-06T04:18:32.266Z,97849.27
2018-07-06T04:21:18.365Z,97853.26
2018-07-06T04:24:04.626Z,97858.37
2018-07-06T04:26:50.915Z,97867.55
2018-07-06T04:29:37.278Z,97867.77
2018-07-06T04:32:17.723Z,97871.77
2018-07-06T04:35:04.040Z,97864.51
2018-07-06T04:37:50.265Z,97867.16
2018-07-06T04:40:36.491Z,97869.80
2018-07-06T04:43:22.609Z,97871.06
2018-07-06T04:46:02.798Z,97867.60
2018-07-06T04:48:48.907Z,97877.83
2018-07-06T04:51:35.259Z,97869.72
2018-07-06T04:54:21.574Z,97877.42
2018-07-06T04:57:07.970Z,97879.04
2018-07-06T04:59:54.395Z,97876.84
2018-07-06T05:02:40.693Z,97877.88
2018-07-06T05:05:26.858Z,97879.80
2018-07-06T05:08:13.031Z,97884.78
2018-07-06T05:10:59.334Z,97890.16
2018-07-06T05:13:45.667Z,97882.20
2018-07-06T05:16:32.052Z,97880.64
2018-07-06T05:19:18.527Z,97876.64
2018-07-06T05:22:04.831Z,97875.63
2018-07-06T05:24:51.186Z,97883.20
2018-07-06T05:27:37.659Z,97885.32
2018-07-06T05:30:23.967Z,97892.31
2018-07-06T05:33:10.202Z,97895.05
2018-07-06T05:35:56.624Z,97897.16
2018-07-06T05:38:42.977Z,97899.03
2018-07-06T05:41:29.390Z,97909.97
2018-07-06T05:44:15.726Z,97914.23
2018-07-06T05:47:02.146Z,97912.33
2018-07-06T05:49:49.468Z,97913.09
2018-07-06T05:52:35.767Z,97914.39
2018-07-06T05:55:21.942Z,97925.38
2018-07-06T05:58:08.258Z,97924.61
2018-07-06T06:00:57.271Z,97928.52
2018-07-06T06:03:44.254Z,97934.92
2018-07-06T06:06:31.270Z,97935.73
2018-07-06T06:08:59.332Z,97939.42
2018-07-06T06:11:29.145Z,97935.87
2018-07-06T06:13:58.380Z,97941.25
2018-07-06T06:16:27.764Z,97943.86
2018-07-06T06:18:57.064Z,97948.65
2018-07-06T06:21:26.412Z,97954.89
2018-07-06T06:23:55.647Z,97956.99
2018-07-06T06:26:30.078Z,97956.19
2018-07-06T06:28:59.683Z,97960.64
2018-07-06T06:31:30.234Z,97963.28
2018-07-06T06:34:02.647Z,97961.45
2018-07-06T06:36:32.541Z,97967.73
2018-07-06T06:39:02.279Z,97973.08
2018-07-06T06:41:31.626Z,97977.64
2018-07-06T06:44:00.926Z,97971.14
2018-07-06T06:46:30.353Z,97975.61
2018-07-06T06:48:59.684Z,97975.58
2018-07-06T06:51:29.056Z,97975.94
2018-07-06T06:53:58.540Z,97980.16
2018-07-06T06:56:27.973Z,97976.60
2018-07-06T06:58:57.496Z,97978.58
2018-07-06T07:01:26.907Z,97981.81
2018-07-06T07:03:56.338Z,97984.18
2018-07-06T07:06:25.725Z,97979.30
2018-07-06T07:08:55.178Z,97984.36
2018-07-06T07:11:24.486Z,97988.94
2018-07-06T07:13:54.097Z,97993.02
2018-07-06T07:16:23.435Z,97991.94
2018-07-06T07:18:52.984Z,97991.72
2018-07-06T07:21:22.491Z,97996.15
2018-07-06T07:23:52.071Z,97996.22
2018-07-06T07:26:21.522Z,97998.16
2018-07-06T07:28:50.925Z,97998.44
2018-07-06T07:31:21.123Z,97997.34
2018-07-06T07:33:50.801Z,97994.77
2018-07-06T07:36:20.327Z,97998.13
2018-07-06T07:38:49.926Z,97992.12
2018-07-06T07:41:19.416Z,97997.64
2018-07-06T07:43:48.983Z,97996.00
2018-07-06T07:46:18.371Z,97993.28
2018-07-06T07:48:47.750Z,97994.34
2018-07-06T07:52:06.205Z,97994.48
2018-07-06T07:54:42.107Z,98001.22
2018-07-06T07:57:11.573Z,97999.47
2018-07-06T07:59:41.710Z,98004.30
2018-07-06T08:02:11.047Z,98005.00
2018-07-06T08:04:40.852Z,98006.47
2018-07-06T08:07:10.390Z,98007.84
2018-07-06T08:09:39.769Z,98008.51
2018-07-06T08:12:09.176Z,98007.96
2018-07-06T08:14:38.551Z,98013.69
2018-07-06T08:17:07.896Z,98014.03
2018-07-06T08:19:37.236Z,98016.34
2018-07-06T08:22:06.603Z,98018.83
2018-07-06T08:24:35.905Z,98020.05
2018-07-06T08:27:05.322Z,98027.60
2018-07-06T08:29:34.683Z,98035.28
2018-07-06T08:32:04.205Z,98035.30
2018-07-06T08:34:50.445Z,98037.05
2018-07-06T08:38:05.325Z,98041.50
2018-07-06T08:40:34.847Z,98042.64
2018-07-06T08:43:05.358Z,98053.03
2018-07-06T08:45:35.244Z,98049.34
2018-07-06T08:48:04.698Z,98052.12
2018-07-06T08:50:33.919Z,98044.27
2018-07-06T08:53:03.367Z,98042.16
2018-07-06T08:55:32.898Z,98049.20
2018-07-06T08:58:02.207Z,98046.67
2018-07-06T09:00:31.516Z,98049.27
2018-07-06T09:03:00.882Z,98053.28
2018-07-06T09:05:30.326Z,98053.95
2018-07-06T09:07:59.723Z,98059.28
2018-07-06T09:10:28.879Z,98060.91
2018-07-06T09:12:58.272Z,98062.66
2018-07-06T09:15:27.622Z,98068.02
2018-07-06T09:17:56.935Z,98068.47
2018-07-06T09:20:26.218Z,98065.95
2018-07-06T09:22:55.901Z,98055.03
2018-07-06T09:25:25.473Z,98068.44
2018-07-06T09:27:54.872Z,98060.44
2018-07-06T09:30:24.405Z,98054.12
2018-07-06T09:32:53.936Z,98061.91
2018-07-06T09:35:23.507Z,98058.36
2018-07-06T09:37:52.911Z,98060.58
2018-07-06T09:40:22.354Z,98060.86
2018-07-06T09:42:51.854Z,98066.19
2018-07-06T09:45:21.171Z,98069.62
2018-07-06T09:47:50.533Z,98062.28
2018-07-06T09:50:19.892Z,98066.63
2018-07-06T09:52:49.090Z,98066.75
2018-07-06T09:55:18.529Z,98065.94
2018-07-06T09:57:48.858Z,98064.25
2018-07-06T10:00:23.293Z,98058.98
2018-07-06T10:02:52.760Z,98068.84
2018-07-06T10:05:22.205Z,98064.04
2018-07-06T10:07:51.666Z,98064.60
2018-07-06T10:10:21.047Z,98065.50
2018-07-06T10:12:50.454Z,98056.98
2018-07-06T10:15:19.992Z,98068.62
2018-07-06T10:17:49.383Z,98074.42
2018-07-06T10:20:18.680Z,98067.63
2018-07-06T10:22:48.116Z,98067.01
2018-07-06T10:25:17.484Z,98062.91
2018-07-06T10:28:00.122Z,98060.11
2018-07-06T10:30:40.804Z,98063.97
2018-07-06T10:33:10.458Z,98068.80
2018-07-06T10:35:39.783Z,98069.73
2018-07-06T10:38:09.319Z,98061.62
2018-07-06T10:40:38.507Z,98061.14
2018-07-06T10:43:08.152Z,98061.35
2018-07-06T10:45:37.631Z,98064.47
2018-07-06T10:48:07.208Z,98070.11
2018-07-06T10:50:36.705Z,98065.52
2018-07-06T10:53:06.177Z,98071.38
2018-07-06T10:55:35.568Z,98070.40
2018-07-06T10:58:05.045Z,98076.61
2018-07-06T11:00:34.494Z,98074.09
2018-07-06T11:03:03.835Z,98073.78
2018-07-06T11:05:33.254Z,98075.16
2018-07-06T11:08:02.908Z,98065.20
2018-07-06T11:10:32.310Z,98071.63
2018-07-06T11:22:18.900Z,98073.05
2018-07-06T11:24:48.316Z,98079.52
2018-07-06T11:27:17.627Z,98075.97
2018-07-06T11:29:47.123Z,98063.75
2018-07-06T11:32:16.655Z,98071.30
2018-07-06T11:34:46.070Z,98072.80
2018-07-06T11:37:15.445Z,98074.20
2018-07-06T11:39:44.764Z,98078.33
2018-07-06T11:42:14.132Z,98067.73
2018-07-06T11:44:43.335Z,98071.67
2018-07-06T11:47:12.777Z,98063.57
2018-07-06T11:49:42.220Z,98060.77
2018-07-06T11:52:11.551Z,98065.94
2018-07-06T11:54:41.017Z,98061.62
2018-07-06T11:57:10.364Z,98068.66
2018-07-06T11:59:39.678Z,98066.94
2018-07-06T12:02:09.300Z,98079.16
2018-07-06T12:04:38.876Z,98084.47
2018-07-06T12:07:08.240Z,98079.17
2018-07-06T12:09:37.333Z,98084.65
2018-07-06T12:12:06.758Z,98073.28
2018-07-06T12:14:36.159Z,98069.33
2018-07-06T12:17:05.637Z,98080.40
2018-07-06T12:19:34.778Z,98082.05
2018-07-06T12:22:04.117Z,98081.44
2018-07-06T12:24:33.503Z,98078.17
2018-07-06T12:27:02.831Z,98077.36
2018-07-06T12:29:32.284Z,98082.09
2018-07-06T12:32:01.664Z,98072.81
2018-07-06T12:34:31.099Z,98076.84
2018-07-06T12:37:00.630Z,98073.26
2018-07-06T12:39:29.987Z,98065.58
2018-07-06T12:41:59.320Z,98068.51
2018-07-06T12:44:28.768Z,98069.50
2018-07-06T12:46:58.114Z,98071.18
2018-07-06T12:49:27.285Z,98075.33
2018-07-06T12:51:56.725Z,98065.91
2018-07-06T12:54:25.903Z,98065.63
2018-07-06T12:56:55.305Z,98059.42
2018-07-06T12:59:24.590Z,98052.09
2018-07-06T13:01:54.054Z,98045.89
2018-07-06T13:04:23.478Z,98049.48
2018-07-06T13:06:53.220Z,98046.30
2018-07-06T13:09:22.875Z,98046.25
2018-07-06T13:11:52.224Z,98050.13
2018-07-06T13:14:21.692Z,98054.83
2018-07-06T13:16:51.254Z,98051.16
2018-07-06T13:19:29.961Z,98051.41
2018-07-06T13:21:59.287Z,98041.97
2018-07-06T13:24:28.383Z,98042.25
2018-07-06T13:26:57.740Z,98042.63
2018-07-06T13:29:27.127Z,98046.97
2018-07-06T13:31:56.434Z,98040.58
2018-07-06T13:34:25.748Z,98045.14
2018-07-06T13:36:55.095Z,98044.30
2018-07-06T13:39:24.157Z,98043.78
2018-07-06T13:41:53.540Z,98040.69
2018-07-06T13:44:22.983Z,98045.37
2018-07-06T13:46:52.384Z,98061.27
2018-07-06T13:49:21.739Z,98059.70
2018-07-06T13:51:51.204Z,98059.58
2018-07-06T13:54:20.620Z,98058.23
2018-07-06T13:56:50.044Z,98068.00
2018-07-06T13:59:19.563Z,98068.20
2018-07-06T14:01:48.939Z,98065.05
2018-07-06T14:04:18.392Z,98064.45
2018-07-06T14:06:47.818Z,98060.47
2018-07-06T14:09:17.137Z,98058.23
2018-07-06T14:11:46.638Z,98063.58
2018-07-06T14:14:17.776Z,98057.81
2018-07-06T14:16:47.171Z,98045.61
2018-07-06T14:19:16.467Z,98058.37
2018-07-06T14:21:45.770Z,98055.52
2018-07-06T14:24:15.252Z,98059.23
2018-07-06T14:26:44.621Z,98061.67
2018-07-06T14:29:14.211Z,98066.45
2018-07-06T14:31:43.580Z,98056.62
2018-07-06T14:34:12.963Z,98062.44
2018-07-06T14:36:42.425Z,98057.22
2018-07-06T14:39:11.965Z,98053.61
2018-07-06T14:41:41.346Z,98045.22
2018-07-06T14:44:10.793Z,98042.27
2018-07-06T14:46:40.219Z,98047.03
2018-07-06T14:49:09.679Z,98043.55
2018-07-06T14:51:39.093Z,98047.13
2018-07-06T14:54:08.493Z,98046.16
2018-07-06T14:56:37.860Z,98048.52
2018-07-06T14:59:07.495Z,98048.94
2018-07-06T15:01:37.013Z,98051.48
2018-07-06T15:04:06.615Z,98044.53
2018-07-06T15:06:37.066Z,98046.50
2018-07-06T15:09:07.268Z,98042.30
2018-07-06T15:11:36.517Z,98041.72
2018-07-06T15:14:06.243Z,98037.80
2018-07-06T15:16:35.791Z,98032.56
2018-07-06T15:19:05.674Z,98036.52
2018-07-06T15:21:35.061Z,98031.28
2018-07-06T15:24:04.494Z,98029.41
2018-07-06T15:26:33.782Z,98033.55
2018-07-06T15:29:02.782Z,98036.92
2018-07-06T15:31:32.020Z,98033.17
2018-07-06T15:34:01.349Z,98034.31
2018-07-06T15:36:30.569Z,98029.97
2018-07-06T15:38:59.923Z,98036.60
2018-07-06T15:41:29.220Z,98043.31
2018-07-06T15:43:58.515Z,98046.02
2018-07-06T15:46:27.791Z,98043.89
2018-07-06T15:48:57.038Z,98050.80
2018-07-06T15:51:26.411Z,98059.38
2018-07-06T15:53:55.762Z,98059.67
2018-07-06T15:56:25.049Z,98069.88
2018-07-06T15:58:54.445Z,98071.02
2018-07-06T16:01:23.697Z,98081.37
2018-07-06T16:03:52.885Z,98077.56
2018-07-06T16:06:22.175Z,98078.72
2018-07-06T16:08:51.458Z,98086.33
2018-07-06T16:11:20.747Z,98083.77
2018-07-06T16:13:50.085Z,98088.31
2018-07-06T16:16:19.438Z,98088.63
2018-07-06T16:18:48.818Z,98084.24
2018-07-06T16:21:18.014Z,98082.42
2018-07-06T16:23:47.365Z,98082.16
2018-07-06T16:26:16.608Z,98079.67
2018-07-06T16:28:45.896Z,98079.13
2018-07-06T16:31:15.115Z,98074.27
2018-07-06T16:33:44.338Z,98082.28
2018-07-06T16:36:13.600Z,98084.45
2018-07-06T16:38:42.827Z,98090.30
2018-07-06T16:41:12.039Z,98103.58
2018-07-06T16:43:41.311Z,98099.16
2018-07-06T16:49:33.965Z,98112.64
2018-07-06T16:52:03.181Z,98104.88
2018-07-06T16:54:32.518Z,98109.01
2018-07-06T16:57:01.758Z,98113.83
2018-07-06T16:59:31.066Z,98112.66
2018-07-06T17:02:00.382Z,98116.79
2018-07-06T17:04:29.561Z,98121.00
2018-07-06T17:06:58.803Z,98114.69
2018-07-06T17:09:28.189Z,98118.45
2018-07-06T17:11:57.459Z,98112.33
2018-07-06T17:14:26.691Z,98112.40
2018-07-06T17:16:55.965Z,98113.86
2018-07-06T17:19:25.201Z,98118.24
2018-07-06T17:21:54.392Z,98119.03
2018-07-06T17:24:23.581Z,98123.93
2018-07-06T17:26:53.258Z,98129.70
2018-07-06T17:29:22.409Z,98126.74
2018-07-06T17:31:51.762Z,98129.38
2018-07-06T17:34:21.039Z,98122.92
2018-07-06T17:36:50.315Z,98141.93
2018-07-06T17:40:05.101Z,98128.25
2018-07-06T17:43:26.482Z,98129.20
2018-07-06T17:49:01.638Z,98133.34
2018-07-06T17:51:33.356Z,98135.06
2018-07-06T17:54:02.735Z,98134.13
2018-07-06T17:56:32.037Z,98133.98
2018-07-06T17:59:01.365Z,98135.38
2018-07-06T18:01:30.645Z,98142.03
2018-07-06T18:03:59.883Z,98141.09
2018-07-06T18:06:29.135Z,98140.54
2018-07-06T18:08:58.487Z,98138.33
2018-07-06T18:11:27.815Z,98135.42
2018-07-06T18:13:57.041Z,98134.29
2018-07-06T18:16:27.262Z,98132.50
2018-07-06T18:19:26.793Z,98136.23
2018-07-06T18:21:56.148Z,98144.23
2018-07-06T18:24:25.452Z,98147.31
2018-07-06T18:26:54.779Z,98146.13
2018-07-06T18:29:23.976Z,98141.09
2018-07-06T18:31:53.412Z,98146.63
2018-07-06T18:34:22.727Z,98152.73
2018-07-06T18:36:52.090Z,98161.58
2018-07-06T18:39:21.370Z,98163.86
2018-07-06T18:41:50.795Z,98164.95
2018-07-06T18:44:20.069Z,98173.85
2018-07-06T18:46:49.340Z,98178.89
2018-07-06T18:49:18.586Z,98175.09
2018-07-06T18:51:47.882Z,98173.18
2018-07-06T18:54:16.924Z,98175.98
2018-07-06T18:56:46.138Z,98169.47
2018-07-06T18:59:15.426Z,98170.03
2018-07-06T19:01:44.685Z,98161.92
2018-07-06T19:04:13.901Z,98161.73
2018-07-06T19:06:43.166Z,98168.73
2018-07-06T19:09:12.403Z,98170.30
2018-07-06T19:11:41.606Z,98177.05
2018-07-06T19:14:10.885Z,98165.66
2018-07-06T19:16:40.150Z,98178.06
2018-07-06T19:19:09.394Z,98185.94
2018-07-06T19:21:38.449Z,98181.70
2018-07-06T19:24:07.738Z,98185.94
2018-07-06T19:26:36.767Z,98179.14
2018-07-06T19:29:06.053Z,98186.76
2018-07-06T19:31:35.405Z,98189.52
2018-07-06T19:34:04.698Z,98196.14
2018-07-06T19:36:33.992Z,98207.30
2018-07-06T19:39:03.451Z,98206.98
2018-07-06T19:41:32.704Z,98207.83
2018-07-06T19:44:01.992Z,98217.32
2018-07-06T19:46:31.337Z,98224.47
2018-07-06T19:49:00.654Z,98229.14
2018-07-06T19:51:29.933Z,98225.19
2018-07-06T19:53:59.218Z,98237.38
2018-07-06T19:56:28.457Z,98237.50
2018-07-06T19:58:57.820Z,98250.00
2018-07-06T20:01:27.122Z,98259.00
2018-07-06T20:03:56.463Z,98261.19
2018-07-06T20:06:25.678Z,98266.78
2018-07-06T20:08:55.056Z,98273.24
2018-07-06T20:11:24.314Z,98272.94
2018-07-06T20:13:53.820Z,98274.86
2018-07-06T20:16:23.066Z,98271.97
2018-07-06T20:18:52.316Z,98284.20
2018-07-06T20:21:21.573Z,98285.52
2018-07-06T20:23:50.911Z,98289.05
2018-07-06T20:26:20.496Z,98289.02
2018-07-06T20:28:49.829Z,98296.05
2018-07-06T20:31:19.218Z,98296.53
2018-07-06T20:33:48.466Z,98303.36
2018-07-06T20:36:17.875Z,98300.19
2018-07-06T20:38:47.260Z,98300.66
2018-07-06T20:41:16.611Z,98307.13
2018-07-06T20:43:45.884Z,98308.74
2018-07-06T20:46:15.275Z,98305.00
2018-07-06T20:48:44.585Z,98309.64
2018-07-06T20:51:13.820Z,98312.90
2018-07-06T20:53:43.138Z,98318.07
2018-07-06T20:56:12.436Z,98319.42
2018-07-06T20:58:41.698Z,98319.41
2018-07-06T21:01:11.011Z,98319.17
2018-07-06T21:03:40.477Z,98321.34
2018-07-06T21:06:09.718Z,98325.44
2018-07-06T21:08:39.016Z,98327.61
2018-07-06T21:11:08.385Z,98326.51
2018-07-06T21:13:37.696Z,98330.03
2018-07-06T21:16:07.107Z,98333.02
2018-07-06T21:18:36.230Z,98331.66
2018-07-06T21:21:05.572Z,98329.81
2018-07-06T21:23:34.751Z,98332.73
2018-07-06T21:26:04.028Z,98327.91
2018-07-06T21:28:33.216Z,98333.08
2018-07-06T21:31:02.510Z,98330.16
2018-07-06T21:33:31.732Z,98330.98
2018-07-06T21:36:01.080Z,98334.49
2018-07-06T21:38:30.242Z,98330.22
2018-07-06T21:40:59.520Z,98327.01
2018-07-06T21:43:28.768Z,98329.41
2018-07-06T21:45:58.157Z,98336.43
2018-07-06T21:48:27.387Z,98343.70
2018-07-06T21:50:56.685Z,98342.34
2018-07-06T21:53:25.922Z,98340.46
2018-07-06T21:55:55.250Z,98346.63
2018-07-06T21:58:24.513Z,98348.27
2018-07-06T22:00:53.798Z,98347.48
2018-07-06T22:03:23.051Z,98350.45
2018-07-06T22:05:52.890Z,98351.27
2018-07-06T22:08:22.181Z,98348.33
2018-07-06T22:10:51.521Z,98340.78
2018-07-06T22:13:20.757Z,98353.15
2018-07-06T22:15:49.958Z,98341.33
2018-07-06T22:18:20.058Z,98349.41
2018-07-06T22:20:49.819Z,98351.80
2018-07-06T22:23:19.095Z,98359.61
2018-07-06T22:25:48.317Z,98358.27
2018-07-06T22:28:17.552Z,98365.78
2018-07-06T22:30:46.758Z,98359.61
2018-07-06T22:33:15.991Z,98365.54
2018-07-06T22:35:45.187Z,98366.34
2018-07-06T22:38:14.398Z,98362.30
2018-07-06T22:40:43.598Z,98360.16
2018-07-06T22:43:12.841Z,98363.94
2018-07-06T22:45:42.023Z,98371.73
2018-07-06T22:48:11.264Z,98366.06
2018-07-06T22:50:40.451Z,98364.72
2018-07-06T22:53:09.673Z,98366.85
2018-07-06T22:55:38.869Z,98363.34
2018-07-06T22:58:08.175Z,98367.66
2018-07-06T23:00:37.435Z,98360.39
2018-07-06T23:03:06.818Z,98358.80
2018-07-06T23:05:36.089Z,98360.67
2018-07-06T23:08:05.303Z,98359.08
2018-07-06T23:10:34.514Z,98364.44
2018-07-06T23:13:03.818Z,98359.61
2018-07-06T23:15:33.030Z,98359.84
2018-07-06T23:18:02.242Z,98361.73
2018-07-06T23:20:31.492Z,98362.27
2018-07-06T23:23:06.024Z,98366.84
2018-07-06T23:25:36.486Z,98365.49
2018-07-06T23:28:05.788Z,98370.62
2018-07-06T23:30:35.054Z,98367.94
2018-07-06T23:33:05.080Z,98372.50
2018-07-06T23:35:34.399Z,98363.61
2018-07-06T23:38:03.618Z,98373.30
2018-07-06T23:40:32.819Z,98372.23
2018-07-06T23:43:01.990Z,98375.16
2018-07-06T23:45:31.195Z,98371.95
2018-07-06T23:48:00.376Z,98375.70
2018-07-06T23:50:29.566Z,98377.03
2018-07-06T23:52:58.779Z,98381.33
2018-07-06T23:55:27.981Z,98373.53
2018-07-06T23:57:57.183Z,98376.77
